createdAt,value
2022-07-29T00:00:02.637Z,101084.40
2022-07-29T00:06:35.113Z,101070.20
2022-07-29T00:12:43.202Z,101067.40
2022-07-29T00:18:15.326Z,101072.00
2022-07-29T00:24:29.003Z,101070.40
2022-07-29T00:29:43.331Z,101074.20
2022-07-29T00:36:05.559Z,101072.40
2022-07-29T00:42:02.599Z,101072.60
2022-07-29T00:47:27.383Z,101067.40
2022-07-29T00:53:38.594Z,101072.00
2022-07-29T00:59:06.575Z,101062.60
2022-07-29T01:05:14.860Z,101064.20
2022-07-29T01:10:40.547Z,101059.20
2022-07-29T01:16:10.661Z,101069.80
2022-07-29T01:22:29.221Z,101070.00
2022-07-29T01:28:36.613Z,101077.80
2022-07-29T01:34:44.513Z,101077.00
2022-07-29T01:40:14.307Z,101071.80
2022-07-29T01:46:01.873Z,101070.80
2022-07-29T01:51:28.297Z,101066.60
2022-07-29T01:57:26.243Z,101067.20
2022-07-29T02:03:19.293Z,101064.60
2022-07-29T02:09:45.881Z,101068.80
2022-07-29T02:15:52.023Z,101066.80
2022-07-29T02:21:30.247Z,101073.20
2022-07-29T02:27:35.437Z,101074.00
2022-07-29T02:33:04.000Z,101074.40
2022-07-29T02:38:56.689Z,101072.40
2022-07-29T02:44:25.921Z,101081.20
2022-07-29T02:50:36.971Z,101075.80
2022-07-29T02:56:54.026Z,101078.80
2022-07-29T03:10:26.226Z,101082.40
2022-07-29T03:15:55.435Z,101086.00
2022-07-29T03:27:38.485Z,101084.20
2022-07-29T03:33:41.487Z,101075.20
2022-07-29T03:39:19.334Z,101075.00
2022-07-29T03:44:28.138Z,101077.80
2022-07-29T03:49:40.418Z,101075.60
2022-07-29T03:54:59.442Z,101073.00
2022-07-29T04:00:26.673Z,101076.00
2022-07-29T04:06:43.893Z,101075.80
2022-07-29T04:12:40.533Z,101074.20
2022-07-29T04:18:26.584Z,101074.60
2022-07-29T04:23:34.622Z,101080.00
2022-07-29T04:28:58.001Z,101085.80
2022-07-29T04:34:11.596Z,101080.80
2022-07-29T04:39:27.261Z,101087.40
2022-07-29T04:44:37.232Z,101089.80
2022-07-29T04:49:43.568Z,101093.20
2022-07-29T04:55:50.515Z,101088.00
2022-07-29T05:01:09.042Z,101094.40
2022-07-29T05:06:25.660Z,101091.00
2022-07-29T05:11:31.992Z,101086.20
2022-07-29T05:16:48.897Z,101088.40
2022-07-29T05:21:55.499Z,101087.60
2022-07-29T05:26:59.259Z,101092.00
2022-07-29T05:32:05.263Z,101086.00
2022-07-29T05:37:21.403Z,101090.20
2022-07-29T05:42:30.336Z,101090.00
2022-07-29T05:47:36.318Z,101092.00
2022-07-29T05:52:42.477Z,101091.20
2022-07-29T05:57:56.123Z,101099.00
2022-07-29T06:03:19.809Z,101094.00
2022-07-29T06:08:23.361Z,101089.60
2022-07-29T06:13:26.572Z,101077.20
2022-07-29T06:18:35.399Z,101089.60
2022-07-29T06:23:40.582Z,101091.00
2022-07-29T06:28:43.940Z,101094.00
2022-07-29T06:33:49.677Z,101089.00
2022-07-29T06:38:57.983Z,101092.80
2022-07-29T06:44:01.408Z,101095.00
2022-07-29T06:49:05.628Z,101093.40
2022-07-29T06:54:08.958Z,101090.20
2022-07-29T06:59:13.699Z,101086.80
2022-07-29T07:04:30.093Z,101088.00
2022-07-29T07:09:40.641Z,101084.40
2022-07-29T07:14:47.701Z,101082.00
2022-07-29T07:20:05.459Z,101081.60
2022-07-29T07:25:11.902Z,101070.20
2022-07-29T07:30:15.783Z,101079.40
2022-07-29T07:35:19.454Z,101079.60
2022-07-29T07:40:25.280Z,101078.40
2022-07-29T07:45:33.678Z,101081.40
2022-07-29T07:50:38.095Z,101083.00
2022-07-29T08:01:07.237Z,101084.00
2022-07-29T08:06:12.946Z,101089.00
2022-07-29T08:11:16.670Z,101101.40
2022-07-29T08:16:20.098Z,101096.60
2022-07-29T08:21:27.011Z,101094.20
2022-07-29T08:26:33.373Z,101092.40
2022-07-29T08:31:38.411Z,101089.80
2022-07-29T08:36:41.888Z,101092.00
2022-07-29T08:41:57.362Z,101098.40
2022-07-29T08:47:06.458Z,101099.00
2022-07-29T08:52:12.825Z,101100.20
2022-07-29T08:57:51.112Z,101097.80
2022-07-29T09:03:00.401Z,101101.80
2022-07-29T09:08:06.441Z,101089.20
2022-07-29T09:13:12.454Z,101091.00
2022-07-29T09:18:48.276Z,101094.20
2022-07-29T09:24:46.708Z,101094.20
2022-07-29T09:30:13.646Z,101086.40
2022-07-29T09:35:57.183Z,101083.40
2022-07-29T09:41:11.327Z,101080.20
2022-07-29T09:46:20.359Z,101077.80
2022-07-29T09:51:38.316Z,101085.00
2022-07-29T09:56:45.154Z,101071.00
2022-07-29T10:01:51.784Z,101072.20
2022-07-29T10:07:05.360Z,101070.80
2022-07-29T10:12:16.765Z,101064.40
2022-07-29T10:17:22.958Z,101061.00
2022-07-29T10:22:51.426Z,101066.00
2022-07-29T10:27:55.019Z,101065.00
2022-07-29T10:33:32.320Z,101056.20
2022-07-29T10:39:03.273Z,101059.40
2022-07-29T10:44:17.435Z,101049.60
2022-07-29T10:49:33.277Z,101061.20
2022-07-29T10:54:37.237Z,101053.20
2022-07-29T10:59:53.237Z,101052.80
2022-07-29T11:04:56.702Z,101050.60
2022-07-29T11:16:06.569Z,101047.80
2022-07-29T11:21:53.931Z,101047.80
2022-07-29T11:27:28.561Z,101037.40
2022-07-29T11:32:59.794Z,101030.00
2022-07-29T11:38:31.631Z,101019.20
2022-07-29T11:43:56.123Z,101016.80
2022-07-29T11:49:01.280Z,101019.60
2022-07-29T11:54:06.522Z,101013.60
2022-07-29T11:59:32.982Z,101003.00
2022-07-29T12:05:02.066Z,101002.80
2022-07-29T12:10:31.922Z,101000.80
2022-07-29T12:16:00.109Z,100994.60
2022-07-29T12:21:09.623Z,100999.00
2022-07-29T12:26:25.342Z,100996.80
2022-07-29T12:31:41.960Z,100999.40
2022-07-29T12:36:48.401Z,101001.80
2022-07-29T12:42:04.802Z,101003.60
2022-07-29T12:47:10.812Z,101005.80
2022-07-29T12:52:33.927Z,100998.40
2022-07-29T12:57:48.855Z,100997.00
2022-07-29T13:03:02.466Z,100993.40
2022-07-29T13:08:21.952Z,100990.60
2022-07-29T13:13:31.081Z,100990.20
2022-07-29T13:18:37.557Z,100987.60
2022-07-29T13:23:44.131Z,100988.00
2022-07-29T13:28:47.443Z,100991.40
2022-07-29T13:33:51.007Z,100986.40
2022-07-29T13:39:02.126Z,100985.80
2022-07-29T13:44:05.459Z,100985.40
2022-07-29T13:49:08.993Z,100983.20
2022-07-29T13:54:12.369Z,100966.80
2022-07-29T13:59:20.045Z,100968.40
2022-07-29T14:04:24.493Z,100961.60
2022-07-29T14:09:28.297Z,100964.60
2022-07-29T14:14:33.545Z,100966.80
2022-07-29T14:19:39.098Z,100970.20
2022-07-29T14:24:42.647Z,100959.80
2022-07-29T14:29:47.079Z,100958.60
2022-07-29T14:34:53.494Z,100963.00
2022-07-29T14:40:00.840Z,100962.40
2022-07-29T14:45:09.228Z,100961.40
2022-07-29T14:50:13.307Z,100952.40
2022-07-29T14:55:20.127Z,100949.20
2022-07-29T15:00:23.798Z,100942.80
2022-07-29T15:05:27.939Z,100945.60
2022-07-29T15:10:40.156Z,100942.60
2022-07-29T15:15:44.164Z,100930.80
2022-07-29T15:20:47.783Z,100938.80
2022-07-29T15:25:51.105Z,100935.40
2022-07-29T15:30:57.427Z,100933.20
2022-07-29T15:36:00.903Z,100932.20
2022-07-29T15:41:04.240Z,100921.00
2022-07-29T15:46:26.304Z,100923.00
2022-07-29T15:51:29.686Z,100920.20
2022-07-29T15:56:36.635Z,100920.20
2022-07-29T16:01:42.500Z,100906.60
2022-07-29T16:06:48.010Z,100902.40
2022-07-29T16:11:53.785Z,100900.80
2022-07-29T16:16:57.371Z,100896.20
2022-07-29T16:22:00.951Z,100884.60
2022-07-29T16:27:04.571Z,100880.60
2022-07-29T16:32:10.328Z,100877.60
2022-07-29T16:37:16.369Z,100882.60
2022-07-29T16:42:36.995Z,100880.40
2022-07-29T16:47:46.427Z,100879.20
2022-07-29T16:52:49.936Z,100877.00
2022-07-29T16:57:53.179Z,100884.20
2022-07-29T17:02:56.666Z,100883.60
2022-07-29T17:07:59.824Z,100879.00
2022-07-29T17:13:02.943Z,100875.00
2022-07-29T17:18:12.720Z,100877.40
2022-07-29T17:23:16.589Z,100877.20
2022-07-29T17:28:20.200Z,100871.60
2022-07-29T17:33:23.378Z,100877.00
2022-07-29T17:38:26.771Z,100882.00
2022-07-29T17:43:30.017Z,100885.40
2022-07-29T17:48:33.284Z,100882.40
2022-07-29T17:53:38.321Z,100879.80
2022-07-29T17:58:42.115Z,100894.00
2022-07-29T18:03:48.781Z,100896.20
2022-07-29T18:08:52.738Z,100905.40
2022-07-29T18:13:59.051Z,100905.00
2022-07-29T18:19:08.940Z,100902.40
2022-07-29T18:24:17.642Z,100909.60
2022-07-29T18:29:24.244Z,100912.60
2022-07-29T18:34:30.571Z,100915.00
2022-07-29T18:39:36.885Z,100914.00
2022-07-29T18:44:43.666Z,100910.40
2022-07-29T18:49:49.820Z,100911.20
2022-07-29T18:54:53.361Z,100909.80
2022-07-29T18:59:56.595Z,100906.80
2022-07-29T19:05:00.213Z,100904.60
2022-07-29T19:10:04.056Z,100907.40
2022-07-29T19:15:08.355Z,100911.60
2022-07-29T19:20:12.230Z,100920.80
2022-07-29T19:25:15.590Z,100921.00
2022-07-29T19:30:18.920Z,100924.20
2022-07-29T19:35:24.834Z,100928.80
2022-07-29T19:40:30.266Z,100925.60
2022-07-29T19:45:34.403Z,100930.00
2022-07-29T19:50:37.721Z,100921.60
2022-07-29T19:55:43.227Z,100921.20
2022-07-29T20:00:50.414Z,100927.00
2022-07-29T20:05:54.511Z,100920.60
2022-07-29T20:10:57.926Z,100926.20
2022-07-29T20:16:05.568Z,100926.40
2022-07-29T20:21:09.148Z,100920.20
2022-07-29T20:26:12.903Z,100926.20
2022-07-29T20:31:17.081Z,100925.00
2022-07-29T20:36:20.560Z,100925.20
2022-07-29T20:41:23.904Z,100931.00
2022-07-29T20:46:27.515Z,100936.40
2022-07-29T20:51:30.697Z,100926.40
2022-07-29T20:56:36.066Z,100926.40
2022-07-29T21:01:39.590Z,100925.60
2022-07-29T21:06:42.835Z,100933.60
2022-07-29T21:11:46.691Z,100939.00
2022-07-29T21:16:50.923Z,100935.00
2022-07-29T21:21:54.229Z,100934.20
2022-07-29T21:27:21.778Z,100932.60
2022-07-29T21:32:30.055Z,100930.40
2022-07-29T21:37:33.945Z,100927.20
2022-07-29T21:42:39.914Z,100925.80
2022-07-29T21:47:43.199Z,100921.40
2022-07-29T21:52:46.499Z,100912.40
2022-07-29T21:57:50.957Z,100913.20
2022-07-29T22:02:54.533Z,100919.60
2022-07-29T22:07:58.734Z,100915.40
2022-07-29T22:13:03.574Z,100915.40
